Time;durP1;ratioP1;P1;durP2;ratioP2;P2;SDS_P1;SDS_P2;PMS_P1;PMS_P2;Temp;Humidity;BMP_temperature;BMP_pressure;BME280_temperature;BME280_humidity;BME280_pressure;Samples;Min_cycle;Max_cycle;Signal;HPM_P1;HPM_P2
2022/03/01 00:01:58;;;;;;;5.85;1.70;;;;;;;;;;5103400;28;20024;-74
2022/03/01 00:04:23;;;;;;;7.10;1.65;;;;;;;;;;5103281;28;20059;-74
2022/03/01 00:06:48;;;;;;;3.22;1.27;;;;;;;;;;5102006;28;20065;-74
2022/03/01 00:09:14;;;;;;;4.05;1.65;;;;;;;;;;5101303;28;20036;-74
2022/03/01 00:11:39;;;;;;;2.17;1.35;;;;;;;;;;5103342;28;20480;-74
2022/03/01 00:14:07;;;;;;;3.55;1.30;;;;;;;;;;5102988;28;20058;-73
2022/03/01 00:16:32;;;;;;;2.53;1.30;;;;;;;;;;5103342;28;20020;-74
2022/03/01 00:18:59;;;;;;;3.08;1.25;;;;;;;;;;5103088;28;20044;-74
2022/03/01 00:21:25;;;;;;;2.45;1.20;;;;;;;;;;5103358;28;20027;-74
2022/03/01 00:23:51;;;;;;;3.80;1.10;;;;;;;;;;5102919;28;20062;-74
2022/03/01 00:26:17;;;;;;;2.95;1.15;;;;;;;;;;5103006;28;20090;-74
2022/03/01 00:28:43;;;;;;;7.50;1.50;;;;;;;;;;5103035;28;20044;-74
2022/03/01 00:31:08;;;;;;;4.80;1.40;;;;;;;;;;5101742;28;20047;-75
2022/03/01 00:33:34;;;;;;;1.60;0.80;;;;;;;;;;5105827;28;20513;-74
2022/03/01 00:35:59;;;;;;;4.05;0.90;;;;;;;;;;5106906;28;20046;-74
2022/03/01 00:38:25;;;;;;;2.85;1.30;;;;;;;;;;5106808;28;20049;-73
2022/03/01 00:40:51;;;;;;;4.70;1.25;;;;;;;;;;5104860;28;20111;-74
2022/03/01 00:43:16;;;;;;;2.75;1.10;;;;;;;;;;5106930;28;20109;-74
2022/03/01 00:45:42;;;;;;;9.10;1.48;;;;;;;;;;5106680;28;20039;-74
2022/03/01 00:48:07;;;;;;;3.25;1.02;;;;;;;;;;5106815;28;20024;-74
2022/03/01 00:50:33;;;;;;;2.67;0.98;;;;;;;;;;5106433;28;20056;-74
2022/03/01 00:52:58;;;;;;;3.30;1.17;;;;;;;;;;5106604;28;20084;-74
2022/03/01 00:55:24;;;;;;;1.67;0.77;;;;;;;;;;5106289;28;20017;-74
2022/03/01 00:57:49;;;;;;;4.47;1.05;;;;;;;;;;5106602;28;20478;-75
2022/03/01 01:00:15;;;;;;;3.08;1.10;;;;;;;;;;5106122;28;20477;-74
2022/03/01 01:02:41;;;;;;;2.70;1.20;;;;;;;;;;5106895;28;20027;-74
2022/03/01 01:05:07;;;;;;;5.00;1.27;;;;;;;;;;5105996;28;20088;-74
2022/03/01 01:07:32;;;;;;;1.58;0.80;;;;;;;;;;5105058;28;20031;-74
2022/03/01 01:09:58;;;;;;;5.47;1.08;;;;;;;;;;5105597;28;20024;-74
2022/03/01 01:12:23;;;;;;;4.75;0.80;;;;;;;;;;5105767;28;20024;-74
2022/03/01 01:14:49;;;;;;;2.47;0.85;;;;;;;;;;5105659;28;20035;-74
2022/03/01 01:17:15;;;;;;;1.85;0.90;;;;;;;;;;5105445;28;20035;-74
2022/03/01 01:19:41;;;;;;;3.20;0.98;;;;;;;;;;5105304;28;20028;-74
2022/03/01 01:24:50;;;;;;;3.35;1.30;;;;;;;;;;5105316;28;20134;-73
2022/03/01 01:27:15;;;;;;;8.93;1.02;;;;;;;;;;5105593;28;20474;-74
2022/03/01 01:29:41;;;;;;;3.42;0.80;;;;;;;;;;5103758;28;20020;-73
2022/03/01 01:32:07;;;;;;;5.00;1.30;;;;;;;;;;5105451;28;20044;-74
2022/03/01 01:34:33;;;;;;;2.42;0.82;;;;;;;;;;5105226;28;20020;-74
2022/03/01 01:36:58;;;;;;;0.90;0.68;;;;;;;;;;5105275;28;20066;-74
2022/03/01 01:39:23;;;;;;;5.78;1.58;;;;;;;;;;5105353;28;20032;-74
2022/03/01 01:41:49;;;;;;;7.40;1.13;;;;;;;;;;5104991;28;20039;-74
2022/03/01 01:44:14;;;;;;;4.13;0.90;;;;;;;;;;5104156;28;20020;-74
2022/03/01 01:46:40;;;;;;;4.68;0.73;;;;;;;;;;5103894;28;20031;-74
2022/03/01 01:49:05;;;;;;;6.85;1.17;;;;;;;;;;5104949;28;20024;-74
2022/03/01 01:51:31;;;;;;;1.55;0.70;;;;;;;;;;5104974;28;20028;-75
2022/03/01 01:53:56;;;;;;;2.13;1.00;;;;;;;;;;5103481;28;20036;-74
2022/03/01 01:56:22;;;;;;;2.00;0.95;;;;;;;;;;5103592;28;20185;-74
2022/03/01 01:58:47;;;;;;;3.97;1.05;;;;;;;;;;5104671;28;20024;-74
2022/03/01 02:01:13;;;;;;;3.30;1.17;;;;;;;;;;5103385;28;20551;-75
2022/03/01 02:03:38;;;;;;;4.47;0.77;;;;;;;;;;5103308;28;20095;-74
2022/03/01 02:06:07;;;;;;;4.15;1.00;;;;;;;;;;5103241;28;20081;-73
2022/03/01 02:08:33;;;;;;;3.90;0.95;;;;;;;;;;5104579;28;20087;-74
2022/03/01 02:10:59;;;;;;;6.55;1.40;;;;;;;;;;5104507;28;20028;-74
2022/03/01 02:13:25;;;;;;;3.92;1.02;;;;;;;;;;5104641;28;20100;-74
2022/03/01 02:15:51;;;;;;;5.45;1.13;;;;;;;;;;5104307;28;20491;-75
2022/03/01 02:18:17;;;;;;;0.70;0.50;;;;;;;;;;5104206;28;20027;-74
2022/03/01 02:20:43;;;;;;;4.15;1.10;;;;;;;;;;5104077;28;20093;-74
2022/03/01 02:23:09;;;;;;;3.05;0.90;;;;;;;;;;5104487;28;20024;-74
2022/03/01 02:25:35;;;;;;;2.05;0.75;;;;;;;;;;5102570;28;20055;-74
2022/03/01 02:28:00;;;;;;;1.30;0.77;;;;;;;;;;5103010;28;20028;-74
2022/03/01 02:30:26;;;;;;;2.90;0.95;;;;;;;;;;5104366;28;20066;-74
2022/03/01 02:32:52;;;;;;;4.70;0.95;;;;;;;;;;5104342;28;20039;-74
2022/03/01 02:35:18;;;;;;;3.95;1.10;;;;;;;;;;5104084;28;20024;-74
2022/03/01 02:37:44;;;;;;;1.95;0.88;;;;;;;;;;5104273;28;20085;-74
2022/03/01 02:40:11;;;;;;;2.67;1.05;;;;;;;;;;5103602;28;20097;-74
2022/03/01 02:42:37;;;;;;;4.30;1.15;;;;;;;;;;5104251;28;20028;-74
2022/03/01 02:45:09;;;;;;;4.95;1.13;;;;;;;;;;5102295;28;20046;-74
2022/03/01 02:47:34;;;;;;;3.83;1.00;;;;;;;;;;5101725;28;20038;-74
2022/03/01 02:50:00;;;;;;;3.83;1.10;;;;;;;;;;5104001;28;20035;-74
2022/03/01 02:52:25;;;;;;;2.75;1.10;;;;;;;;;;5103930;28;20035;-74
2022/03/01 02:54:51;;;;;;;3.10;1.15;;;;;;;;;;5102220;28;20035;-74
2022/03/01 02:57:16;;;;;;;5.13;1.60;;;;;;;;;;5103933;28;20032;-74
2022/03/01 02:59:42;;;;;;;3.65;1.05;;;;;;;;;;5103522;28;20028;-74
2022/03/01 03:02:09;;;;;;;4.78;1.42;;;;;;;;;;5103469;28;20466;-74
2022/03/01 03:04:35;;;;;;;8.50;1.55;;;;;;;;;;5103317;28;20032;-74
2022/03/01 03:07:00;;;;;;;3.15;1.20;;;;;;;;;;5103826;28;20070;-74
2022/03/01 03:09:26;;;;;;;5.00;1.35;;;;;;;;;;5103355;28;20028;-74
2022/03/01 03:11:51;;;;;;;3.58;1.33;;;;;;;;;;5103679;28;20027;-74
2022/03/01 03:14:17;;;;;;;6.15;1.63;;;;;;;;;;5103323;28;20028;-74
2022/03/01 03:16:43;;;;;;;3.55;1.65;;;;;;;;;;5103207;28;20039;-74
2022/03/01 03:19:10;;;;;;;4.07;1.63;;;;;;;;;;5103636;28;20032;-74
2022/03/01 03:21:36;;;;;;;5.10;1.95;;;;;;;;;;5102925;28;20493;-74
2022/03/01 03:24:01;;;;;;;4.43;1.40;;;;;;;;;;5102939;28;20052;-74
2022/03/01 03:26:27;;;;;;;6.50;1.50;;;;;;;;;;5103210;28;20030;-74
2022/03/01 03:28:52;;;;;;;4.88;1.73;;;;;;;;;;5101525;28;20381;-74
2022/03/01 03:31:18;;;;;;;2.60;1.40;;;;;;;;;;5103506;28;20023;-74
2022/03/01 03:33:43;;;;;;;6.90;1.70;;;;;;;;;;5103362;28;20039;-74
2022/03/01 03:36:08;;;;;;;6.07;1.77;;;;;;;;;;5103382;28;20102;-74
2022/03/01 03:38:34;;;;;;;9.05;2.03;;;;;;;;;;5103007;28;20425;-74
2022/03/01 03:40:59;;;;;;;4.72;1.80;;;;;;;;;;5101731;28;20085;-74
2022/03/01 03:43:24;;;;;;;5.78;1.90;;;;;;;;;;5103293;28;20521;-74
2022/03/01 03:45:50;;;;;;;5.60;1.60;;;;;;;;;;5102950;28;20036;-74
2022/03/01 03:48:15;;;;;;;4.07;2.20;;;;;;;;;;5101636;28;20028;-74
2022/03/01 03:50:41;;;;;;;5.78;2.33;;;;;;;;;;5101117;28;20031;-74
2022/03/01 03:53:06;;;;;;;5.40;1.90;;;;;;;;;;5102856;28;20043;-74
2022/03/01 03:55:32;;;;;;;5.22;2.03;;;;;;;;;;5102700;28;20091;-74
2022/03/01 03:57:57;;;;;;;7.07;1.92;;;;;;;;;;5102713;28;20437;-74
2022/03/01 04:00:23;;;;;;;3.13;1.50;;;;;;;;;;5101145;28;20032;-74
2022/03/01 04:02:51;;;;;;;5.25;1.60;;;;;;;;;;5101543;28;20035;-74
2022/03/01 04:05:16;;;;;;;4.85;1.95;;;;;;;;;;5101265;28;20032;-74
2022/03/01 04:07:43;;;;;;;5.85;1.90;;;;;;;;;;5104297;28;20051;-74
2022/03/01 04:10:10;;;;;;;6.28;2.22;;;;;;;;;;5106805;28;20032;-74
2022/03/01 04:12:35;;;;;;;4.60;2.20;;;;;;;;;;5106734;28;20036;-74
2022/03/01 04:15:01;;;;;;;4.63;2.15;;;;;;;;;;5106823;28;20040;-74
2022/03/01 04:17:27;;;;;;;5.60;2.47;;;;;;;;;;5105168;28;20323;-74
2022/03/01 04:19:53;;;;;;;4.53;2.20;;;;;;;;;;5106665;28;20040;-74
2022/03/01 04:22:18;;;;;;;6.55;2.65;;;;;;;;;;5107064;28;20024;-74
2022/03/01 04:24:43;;;;;;;7.60;2.00;;;;;;;;;;5106554;28;20123;-74
2022/03/01 04:27:09;;;;;;;6.90;2.53;;;;;;;;;;5105552;28;20663;-74
2022/03/01 04:29:34;;;;;;;7.22;2.83;;;;;;;;;;5106663;28;20049;-74
2022/03/01 04:32:00;;;;;;;8.55;2.75;;;;;;;;;;5105280;28;20028;-75
2022/03/01 04:34:25;;;;;;;6.63;2.58;;;;;;;;;;5106600;28;20040;-75
2022/03/01 04:36:51;;;;;;;6.72;2.53;;;;;;;;;;5106793;28;20028;-75
2022/03/01 04:39:16;;;;;;;6.50;2.35;;;;;;;;;;5106528;28;20089;-75
2022/03/01 04:41:41;;;;;;;10.20;2.97;;;;;;;;;;5106526;28;20081;-75
2022/03/01 04:44:07;;;;;;;8.13;2.90;;;;;;;;;;5105961;28;20084;-74
2022/03/01 04:46:33;;;;;;;8.35;2.80;;;;;;;;;;5106686;28;20035;-75
2022/03/01 04:48:58;;;;;;;8.80;2.85;;;;;;;;;;5106156;28;20024;-74
2022/03/01 04:51:24;;;;;;;6.97;2.83;;;;;;;;;;5104939;28;20028;-75
2022/03/01 04:53:49;;;;;;;7.95;2.80;;;;;;;;;;5106123;28;20040;-74
2022/03/01 04:56:15;;;;;;;6.72;2.70;;;;;;;;;;5104518;28;20035;-75
2022/03/01 04:58:40;;;;;;;10.95;3.08;;;;;;;;;;5105947;28;20055;-74
2022/03/01 05:01:06;;;;;;;6.65;3.17;;;;;;;;;;5106135;28;20036;-75
2022/03/01 05:03:31;;;;;;;7.40;2.83;;;;;;;;;;5106194;28;20067;-75
2022/03/01 05:05:57;;;;;;;8.18;2.63;;;;;;;;;;5104502;28;20032;-75
2022/03/01 05:08:22;;;;;;;7.45;2.67;;;;;;;;;;5106186;28;20032;-75
2022/03/01 05:10:47;;;;;;;7.65;2.83;;;;;;;;;;5106030;28;20115;-75
2022/03/01 05:13:13;;;;;;;7.40;2.85;;;;;;;;;;5105953;28;20028;-74
2022/03/01 05:15:39;;;;;;;5.03;2.00;;;;;;;;;;5105782;28;20083;-75
2022/03/01 05:18:04;;;;;;;5.20;2.25;;;;;;;;;;5105899;28;20020;-74
2022/03/01 05:20:29;;;;;;;8.30;2.90;;;;;;;;;;5105580;28;20028;-74
2022/03/01 05:22:55;;;;;;;10.15;3.00;;;;;;;;;;5105660;28;20096;-74
2022/03/01 05:25:23;;;;;;;11.88;2.60;;;;;;;;;;5104973;28;20032;-74
2022/03/01 05:27:50;;;;;;;8.07;2.80;;;;;;;;;;5105343;28;20060;-74
2022/03/01 05:30:17;;;;;;;13.50;2.17;;;;;;;;;;5105487;28;20062;-74
2022/03/01 05:32:46;;;;;;;6.07;2.50;;;;;;;;;;5105414;28;20028;-74
2022/03/01 05:35:13;;;;;;;6.78;2.50;;;;;;;;;;5105237;28;20031;-74
2022/03/01 05:37:40;;;;;;;7.03;2.30;;;;;;;;;;5105284;28;20036;-74
2022/03/01 05:40:07;;;;;;;4.68;2.38;;;;;;;;;;5105240;28;20051;-74
2022/03/01 05:42:33;;;;;;;4.97;2.72;;;;;;;;;;5105360;28;20057;-74
2022/03/01 05:44:59;;;;;;;10.35;2.83;;;;;;;;;;5105023;28;20470;-74
2022/03/01 05:47:26;;;;;;;5.10;2.75;;;;;;;;;;5105279;28;20031;-74
2022/03/01 05:49:52;;;;;;;9.13;2.38;;;;;;;;;;5103770;28;20015;-74
2022/03/01 05:52:17;;;;;;;12.73;3.63;;;;;;;;;;5105236;28;20042;-74
2022/03/01 05:54:43;;;;;;;10.05;3.35;;;;;;;;;;5104615;28;20024;-74
2022/03/01 05:57:08;;;;;;;6.15;2.20;;;;;;;;;;5105292;28;20055;-74
2022/03/01 05:59:33;;;;;;;6.80;2.83;;;;;;;;;;5105066;28;20024;-73
2022/03/01 06:01:59;;;;;;;8.23;3.03;;;;;;;;;;5103642;28;20231;-74
2022/03/01 06:04:24;;;;;;;4.75;2.40;;;;;;;;;;5104723;28;20028;-74
2022/03/01 06:06:49;;;;;;;5.68;2.70;;;;;;;;;;5104945;28;20061;-74
2022/03/01 06:09:15;;;;;;;6.07;2.80;;;;;;;;;;5104440;28;20084;-74
2022/03/01 06:11:40;;;;;;;8.02;3.30;;;;;;;;;;5104900;28;20057;-74
2022/03/01 06:14:06;;;;;;;6.15;2.72;;;;;;;;;;5104378;28;20048;-74
2022/03/01 06:16:32;;;;;;;7.68;3.17;;;;;;;;;;5104587;28;20067;-73
2022/03/01 06:18:57;;;;;;;7.78;2.53;;;;;;;;;;5103124;28;20131;-74
2022/03/01 06:21:23;;;;;;;10.13;2.97;;;;;;;;;;5104646;28;20032;-74
2022/03/01 06:23:48;;;;;;;8.75;2.67;;;;;;;;;;5104100;28;20033;-73
2022/03/01 06:26:14;;;;;;;12.45;3.63;;;;;;;;;;5104415;28;20048;-75
2022/03/01 06:28:40;;;;;;;7.63;3.15;;;;;;;;;;5104290;28;20035;-74
2022/03/01 06:31:05;;;;;;;7.25;2.90;;;;;;;;;;5102562;28;20135;-75
2022/03/01 06:33:31;;;;;;;6.68;2.90;;;;;;;;;;5104237;28;20054;-74
2022/03/01 06:35:56;;;;;;;10.75;3.40;;;;;;;;;;5104061;28;20054;-74
2022/03/01 06:38:21;;;;;;;7.05;3.00;;;;;;;;;;5104141;28;20106;-74
2022/03/01 06:40:48;;;;;;;11.95;3.53;;;;;;;;;;5104014;28;20454;-74
2022/03/01 06:43:13;;;;;;;7.95;3.25;;;;;;;;;;5104206;28;20126;-74
2022/03/01 06:45:39;;;;;;;7.05;2.88;;;;;;;;;;5103919;28;20035;-74
2022/03/01 06:48:04;;;;;;;7.70;3.50;;;;;;;;;;5103916;28;20036;-73
2022/03/01 06:50:29;;;;;;;9.43;2.22;;;;;;;;;;5102605;28;20125;-74
2022/03/01 06:52:55;;;;;;;7.82;3.28;;;;;;;;;;5103993;28;20028;-74
2022/03/01 06:55:23;;;;;;;8.38;3.95;;;;;;;;;;5103800;28;20032;-74
2022/03/01 06:57:49;;;;;;;9.38;3.42;;;;;;;;;;5102683;28;20461;-74
2022/03/01 07:00:16;;;;;;;6.55;3.40;;;;;;;;;;5103575;28;20114;-74
2022/03/01 07:02:42;;;;;;;10.40;3.47;;;;;;;;;;5104048;28;20028;-74
2022/03/01 07:05:09;;;;;;;7.18;3.83;;;;;;;;;;5102306;28;20089;-74
2022/03/01 07:07:36;;;;;;;8.15;3.08;;;;;;;;;;5103662;28;20031;-74
2022/03/01 07:10:03;;;;;;;8.38;3.38;;;;;;;;;;5103582;28;20075;-74
2022/03/01 07:12:29;;;;;;;6.70;3.08;;;;;;;;;;5103579;28;20050;-74
2022/03/01 07:14:54;;;;;;;4.53;2.03;;;;;;;;;;5103671;28;20028;-74
2022/03/01 07:17:20;;;;;;;7.95;4.20;;;;;;;;;;5102406;28;20024;-74
2022/03/01 07:19:46;;;;;;;5.63;2.72;;;;;;;;;;5103265;28;20036;-74
2022/03/01 07:22:11;;;;;;;8.48;3.03;;;;;;;;;;5102025;28;20429;-74
2022/03/01 07:24:37;;;;;;;5.45;3.20;;;;;;;;;;5103014;28;20050;-74
2022/03/01 07:27:03;;;;;;;9.88;3.25;;;;;;;;;;5103516;28;20032;-74
2022/03/01 07:29:30;;;;;;;7.40;2.63;;;;;;;;;;5102980;28;20107;-74
2022/03/01 07:31:56;;;;;;;10.70;2.88;;;;;;;;;;5101825;28;20032;-74
2022/03/01 07:34:21;;;;;;;10.63;3.33;;;;;;;;;;5102041;28;20051;-74
2022/03/01 07:36:46;;;;;;;5.63;1.88;;;;;;;;;;5102549;28;20028;-75
2022/03/01 07:39:12;;;;;;;4.00;2.17;;;;;;;;;;5102559;28;20028;-75
2022/03/01 07:41:37;;;;;;;11.02;3.72;;;;;;;;;;5102713;28;20027;-74
2022/03/01 07:44:03;;;;;;;8.35;3.45;;;;;;;;;;5102869;28;20031;-74
2022/03/01 07:46:28;;;;;;;11.27;3.15;;;;;;;;;;5102032;28;20118;-74
2022/03/01 07:48:54;;;;;;;4.97;2.28;;;;;;;;;;5103179;28;20036;-74
2022/03/01 07:51:19;;;;;;;6.32;1.98;;;;;;;;;;5101922;28;20036;-74
2022/03/01 07:53:44;;;;;;;5.72;2.40;;;;;;;;;;5103005;28;20028;-74
2022/03/01 07:56:10;;;;;;;5.43;2.80;;;;;;;;;;5101877;28;20035;-75
2022/03/01 07:58:35;;;;;;;6.93;2.92;;;;;;;;;;5103216;28;20028;-74
2022/03/01 08:01:01;;;;;;;5.68;2.20;;;;;;;;;;5101428;28;20028;-74
2022/03/01 08:03:26;;;;;;;5.20;1.98;;;;;;;;;;5103352;28;20028;-74
2022/03/01 08:05:52;;;;;;;10.60;3.53;;;;;;;;;;5101470;28;20444;-74
2022/03/01 08:08:17;;;;;;;8.60;3.50;;;;;;;;;;5101878;28;20028;-74
2022/03/01 08:10:43;;;;;;;9.07;3.63;;;;;;;;;;5101705;28;20039;-74
2022/03/01 08:13:11;;;;;;;16.85;2.67;;;;;;;;;;5101780;28;20054;-74
2022/03/01 08:15:38;;;;;;;7.88;3.53;;;;;;;;;;5103133;28;20024;-74
2022/03/01 08:18:03;;;;;;;5.47;2.60;;;;;;;;;;5101713;28;20043;-75
2022/03/01 08:20:29;;;;;;;4.03;2.30;;;;;;;;;;5102802;28;20032;-74
2022/03/01 08:22:54;;;;;;;7.63;3.17;;;;;;;;;;5101423;28;20528;-74
2022/03/01 08:25:20;;;;;;;10.57;3.72;;;;;;;;;;5102525;28;20036;-74
2022/03/01 08:27:46;;;;;;;9.20;3.80;;;;;;;;;;5102885;28;20486;-74
2022/03/01 08:30:13;;;;;;;10.57;3.42;;;;;;;;;;5102826;28;20036;-74
2022/03/01 08:32:38;;;;;;;9.95;3.95;;;;;;;;;;5102786;28;20027;-74
2022/03/01 08:35:05;;;;;;;9.85;4.60;;;;;;;;;;5102725;28;20028;-74
2022/03/01 08:37:30;;;;;;;12.52;3.90;;;;;;;;;;5102876;28;20032;-74
2022/03/01 08:39:55;;;;;;;9.05;3.65;;;;;;;;;;5101741;28;20032;-75
2022/03/01 08:42:21;;;;;;;8.10;3.70;;;;;;;;;;5099777;28;20034;-74
2022/03/01 08:44:46;;;;;;;8.38;3.65;;;;;;;;;;5100311;28;20035;-74
2022/03/01 08:47:12;;;;;;;9.20;3.70;;;;;;;;;;5100215;28;20066;-74
2022/03/01 08:49:37;;;;;;;7.25;2.97;;;;;;;;;;5101104;28;20028;-74
2022/03/01 08:52:03;;;;;;;9.90;4.72;;;;;;;;;;5102439;28;20036;-74
2022/03/01 08:54:29;;;;;;;8.07;3.22;;;;;;;;;;5104213;28;20032;-74
2022/03/01 08:56:54;;;;;;;11.43;4.13;;;;;;;;;;5106987;28;20035;-75
2022/03/01 08:59:25;;;;;;;8.50;3.70;;;;;;;;;;5106904;28;20089;-75
2022/03/01 09:01:51;;;;;;;10.20;4.40;;;;;;;;;;5106900;28;20024;-74
2022/03/01 09:04:16;;;;;;;7.32;3.92;;;;;;;;;;5107281;28;20038;-74
2022/03/01 09:06:42;;;;;;;7.65;4.13;;;;;;;;;;5106908;28;20020;-74
2022/03/01 09:09:07;;;;;;;13.57;5.53;;;;;;;;;;5105148;28;20070;-74
2022/03/01 09:11:33;;;;;;;10.00;4.45;;;;;;;;;;5106445;28;20031;-74
2022/03/01 09:13:58;;;;;;;5.32;2.47;;;;;;;;;;5106487;28;20020;-74
2022/03/01 09:16:24;;;;;;;9.55;4.70;;;;;;;;;;5106736;28;20032;-75
2022/03/01 09:18:49;;;;;;;10.30;5.32;;;;;;;;;;5106323;28;20052;-74
2022/03/01 09:21:15;;;;;;;12.13;4.38;;;;;;;;;;5106704;28;20484;-75
2022/03/01 09:23:42;;;;;;;5.65;3.50;;;;;;;;;;5106779;28;20028;-75
2022/03/01 09:26:07;;;;;;;11.02;4.15;;;;;;;;;;5104963;28;20051;-75
2022/03/01 09:28:33;;;;;;;6.88;3.53;;;;;;;;;;5106376;28;20568;-74
2022/03/01 09:30:58;;;;;;;13.82;4.70;;;;;;;;;;5106206;28;20042;-75
2022/03/01 09:33:24;;;;;;;10.77;4.38;;;;;;;;;;5106191;28;20028;-75
2022/03/01 09:35:49;;;;;;;6.20;3.85;;;;;;;;;;5103982;28;20032;-74
2022/03/01 09:38:15;;;;;;;12.68;5.28;;;;;;;;;;5104330;28;20059;-74
2022/03/01 09:40:41;;;;;;;9.73;4.32;;;;;;;;;;5103941;28;20031;-74
2022/03/01 09:43:10;;;;;;;9.05;4.47;;;;;;;;;;5105552;28;20092;-74
2022/03/01 09:45:36;;;;;;;9.55;3.45;;;;;;;;;;5105329;28;20077;-74
2022/03/01 09:48:04;;;;;;;9.75;3.92;;;;;;;;;;5105612;28;20441;-74
2022/03/01 09:50:30;;;;;;;12.65;5.05;;;;;;;;;;5105078;28;20035;-74
2022/03/01 09:52:58;;;;;;;12.07;6.03;;;;;;;;;;5105317;28;20031;-74
2022/03/01 09:55:24;;;;;;;10.18;5.32;;;;;;;;;;5105204;28;20039;-74
2022/03/01 09:57:50;;;;;;;7.97;3.05;;;;;;;;;;5105292;28;20039;-74
2022/03/01 10:00:19;;;;;;;9.68;4.22;;;;;;;;;;5105501;28;20016;-74
2022/03/01 10:02:44;;;;;;;11.70;5.43;;;;;;;;;;5103945;28;20028;-74
2022/03/01 10:05:12;;;;;;;10.32;4.55;;;;;;;;;;5104586;28;20029;-74
2022/03/01 10:07:42;;;;;;;11.73;5.65;;;;;;;;;;5103958;28;20065;-75
2022/03/01 10:10:16;;;;;;;9.50;4.47;;;;;;;;;;5104986;28;20027;-75
2022/03/01 10:12:43;;;;;;;11.18;4.90;;;;;;;;;;5103874;28;20027;-75
2022/03/01 10:15:10;;;;;;;14.88;5.53;;;;;;;;;;5105252;28;20024;-75
2022/03/01 10:17:44;;;;;;;17.25;5.88;;;;;;;;;;5105513;28;20043;-75
2022/03/01 10:20:12;;;;;;;11.75;5.07;;;;;;;;;;5105205;28;20028;-75
2022/03/01 10:22:46;;;;;;;11.07;4.00;;;;;;;;;;5105081;28;20078;-74
2022/03/01 10:25:14;;;;;;;10.68;4.22;;;;;;;;;;5104595;28;20056;-75
2022/03/01 10:27:39;;;;;;;5.97;3.78;;;;;;;;;;5103718;28;20122;-75
2022/03/01 10:30:07;;;;;;;6.30;3.35;;;;;;;;;;5104519;28;20419;-75
2022/03/01 10:32:33;;;;;;;9.07;3.83;;;;;;;;;;5104692;28;20099;-75
2022/03/01 10:35:03;;;;;;;11.75;4.80;;;;;;;;;;5104477;28;20035;-74
2022/03/01 10:37:31;;;;;;;12.13;4.80;;;;;;;;;;5103355;28;20047;-75
2022/03/01 10:40:21;;;;;;;15.48;6.30;;;;;;;;;;5103186;28;20101;-75
2022/03/01 10:43:09;;;;;;;6.20;3.83;;;;;;;;;;5104582;28;20031;-75
2022/03/01 10:45:39;;;;;;;14.40;5.90;;;;;;;;;;5104418;28;20032;-75
2022/03/01 10:48:10;;;;;;;12.57;6.45;;;;;;;;;;5104657;28;20028;-75
2022/03/01 10:50:37;;;;;;;6.13;3.58;;;;;;;;;;5104251;28;20236;-75
2022/03/01 10:53:03;;;;;;;10.93;6.00;;;;;;;;;;5104473;28;20028;-75
2022/03/01 10:55:32;;;;;;;10.18;4.25;;;;;;;;;;5102704;28;20028;-75
2022/03/01 10:57:59;;;;;;;6.50;3.88;;;;;;;;;;5104340;28;20024;-75
2022/03/01 11:00:24;;;;;;;9.85;5.25;;;;;;;;;;5104190;28;20036;-75
2022/03/01 11:02:50;;;;;;;10.52;5.25;;;;;;;;;;5102755;28;20028;-75
2022/03/01 11:05:16;;;;;;;10.73;4.75;;;;;;;;;;5104103;28;20031;-75
2022/03/01 11:07:43;;;;;;;11.02;5.35;;;;;;;;;;5102584;28;20044;-75
2022/03/01 11:10:12;;;;;;;8.98;4.22;;;;;;;;;;5102640;28;20493;-75
2022/03/01 11:12:40;;;;;;;11.25;4.50;;;;;;;;;;5104236;28;20048;-75
2022/03/01 11:15:35;;;;;;;10.35;4.07;;;;;;;;;;5102700;28;20481;-75
2022/03/01 11:18:19;;;;;;;9.45;4.70;;;;;;;;;;5088813;28;20036;-75
2022/03/01 11:20:47;;;;;;;;;;;;;;;;;;5104016;28;20505;-75
2022/03/01 11:23:15;;;;;;;4.07;2.67;;;;;;;;;;5104045;28;19912;-75
2022/03/01 11:25:47;;;;;;;8.00;3.30;;;;;;;;;;5103476;28;20040;-75
2022/03/01 11:28:18;;;;;;;5.65;3.33;;;;;;;;;;5102184;28;20119;-75
2022/03/01 11:30:51;;;;;;;9.20;5.00;;;;;;;;;;5103570;28;20097;-75
2022/03/01 11:33:27;;;;;;;12.65;5.60;;;;;;;;;;5103754;28;20030;-75
2022/03/01 11:35:58;;;;;;;11.27;6.30;;;;;;;;;;5103773;28;20028;-75
2022/03/01 11:38:28;;;;;;;12.23;6.47;;;;;;;;;;5103962;28;20398;-75
2022/03/01 11:41:08;;;;;;;14.75;6.70;;;;;;;;;;5103313;28;20057;-75
2022/03/01 11:43:38;;;;;;;14.52;5.55;;;;;;;;;;5103732;28;20043;-75
2022/03/01 11:46:15;;;;;;;12.80;5.97;;;;;;;;;;5102354;28;20510;-75
2022/03/01 11:48:46;;;;;;;15.35;5.90;;;;;;;;;;5103671;28;20087;-75
2022/03/01 11:51:12;;;;;;;11.35;6.10;;;;;;;;;;5101645;28;20573;-74
2022/03/01 11:53:49;;;;;;;12.88;6.00;;;;;;;;;;5103746;28;20023;-75
2022/03/01 11:56:15;;;;;;;12.73;5.25;;;;;;;;;;5103428;28;20441;-75
2022/03/01 11:58:51;;;;;;;12.35;4.80;;;;;;;;;;5105373;28;20024;-75
2022/03/01 12:01:32;;;;;;;10.70;5.93;;;;;;;;;;5104275;28;20024;-76
2022/03/01 12:04:04;;;;;;;9.57;5.82;;;;;;;;;;5094044;28;20092;-75
2022/03/01 12:06:30;;;;;;;11.00;6.13;;;;;;;;;;5103162;28;20032;-75
2022/03/01 12:08:58;;;;;;;11.45;6.13;;;;;;;;;;5101391;28;20024;-75
2022/03/01 12:11:38;;;;;;;9.38;5.07;;;;;;;;;;5103144;28;20040;-74
2022/03/01 12:14:09;;;;;;;7.75;3.95;;;;;;;;;;5101261;28;20058;-74
2022/03/01 12:16:36;;;;;;;9.95;5.07;;;;;;;;;;5103034;28;20036;-74
2022/03/01 12:19:18;;;;;;;15.02;6.07;;;;;;;;;;5103093;28;20028;-74
2022/03/01 12:21:54;;;;;;;11.68;5.45;;;;;;;;;;5101603;28;20032;-74
2022/03/01 12:24:22;;;;;;;10.38;4.63;;;;;;;;;;5102014;28;20024;-74
2022/03/01 12:26:53;;;;;;;11.07;5.30;;;;;;;;;;5101407;28;20046;-73
2022/03/01 12:29:21;;;;;;;9.15;5.50;;;;;;;;;;5104693;28;20043;-74
2022/03/01 12:32:10;;;;;;;11.45;6.03;;;;;;;;;;5106620;28;20036;-74
2022/03/01 12:34:37;;;;;;;11.07;5.30;;;;;;;;;;5106627;28;20032;-74
2022/03/01 12:37:05;;;;;;;10.77;5.50;;;;;;;;;;5105181;28;20020;-73
2022/03/01 12:39:31;;;;;;;8.02;4.18;;;;;;;;;;5106523;28;20055;-73
2022/03/01 12:41:58;;;;;;;10.73;4.78;;;;;;;;;;5106660;28;20067;-73
2022/03/01 12:44:29;;;;;;;10.65;5.50;;;;;;;;;;5105093;28;20044;-74
2022/03/01 12:46:56;;;;;;;10.70;5.07;;;;;;;;;;5106670;28;20027;-74
2022/03/01 12:49:23;;;;;;;12.07;5.85;;;;;;;;;;5106537;28;20032;-73
2022/03/01 12:51:51;;;;;;;9.77;6.03;;;;;;;;;;5104920;28;20028;-74
2022/03/01 12:54:22;;;;;;;12.20;5.72;;;;;;;;;;5104883;28;20032;-74
2022/03/01 12:56:53;;;;;;;6.78;3.45;;;;;;;;;;5106429;28;20042;-74
2022/03/01 12:59:35;;;;;;;4.85;3.25;;;;;;;;;;5106172;28;20088;-74
2022/03/01 13:02:04;;;;;;;6.28;3.50;;;;;;;;;;5105965;28;20099;-73
2022/03/01 13:04:34;;;;;;;9.45;4.63;;;;;;;;;;5104720;28;20450;-73
2022/03/01 13:07:00;;;;;;;9.60;5.10;;;;;;;;;;5106102;28;20031;-73
2022/03/01 13:09:26;;;;;;;10.73;5.88;;;;;;;;;;5105894;28;20071;-73
2022/03/01 13:11:52;;;;;;;11.35;5.95;;;;;;;;;;5106141;28;20032;-74
2022/03/01 13:14:18;;;;;;;11.48;6.18;;;;;;;;;;5105713;28;20028;-73
2022/03/01 13:16:51;;;;;;;12.75;6.43;;;;;;;;;;5104726;28;20035;-73
2022/03/01 13:19:24;;;;;;;12.10;5.78;;;;;;;;;;5105972;28;20055;-73
2022/03/01 13:21:56;;;;;;;10.55;6.22;;;;;;;;;;5105687;28;20036;-74
2022/03/01 13:24:32;;;;;;;12.00;6.47;;;;;;;;;;5105899;28;20028;-73
2022/03/01 13:26:59;;;;;;;7.95;4.35;;;;;;;;;;5105931;28;20036;-73
2022/03/01 13:29:31;;;;;;;9.13;5.22;;;;;;;;;;5105679;28;20032;-74
2022/03/01 13:32:03;;;;;;;9.82;5.90;;;;;;;;;;5104376;28;20055;-74
2022/03/01 13:34:29;;;;;;;10.93;6.07;;;;;;;;;;5103989;28;20054;-73
2022/03/01 13:36:54;;;;;;;12.85;5.93;;;;;;;;;;5105376;28;20024;-74
2022/03/01 13:39:21;;;;;;;7.05;4.13;;;;;;;;;;5103075;28;20109;-74
2022/03/01 13:41:58;;;;;;;8.77;4.97;;;;;;;;;;5104122;28;20028;-74
2022/03/01 13:44:27;;;;;;;13.00;7.78;;;;;;;;;;5105033;28;20383;-73
2022/03/01 13:47:08;;;;;;;9.23;4.88;;;;;;;;;;5105011;28;20039;-74
2022/03/01 13:49:45;;;;;;;9.65;5.47;;;;;;;;;;5104803;28;20038;-73
2022/03/01 13:52:16;;;;;;;12.00;6.35;;;;;;;;;;5103620;28;20037;-74
2022/03/01 13:54:57;;;;;;;13.25;6.03;;;;;;;;;;5103275;28;20032;-73
2022/03/01 13:57:26;;;;;;;10.40;6.22;;;;;;;;;;5105140;28;20055;-73
2022/03/01 14:00:03;;;;;;;9.38;4.97;;;;;;;;;;5104934;28;20054;-74
2022/03/01 14:02:29;;;;;;;12.95;6.95;;;;;;;;;;5104045;28;20024;-74
2022/03/01 14:05:04;;;;;;;12.20;7.57;;;;;;;;;;5103659;28;20049;-74
2022/03/01 14:07:29;;;;;;;10.68;5.10;;;;;;;;;;5105059;28;20093;-73
2022/03/01 14:09:54;;;;;;;9.02;5.43;;;;;;;;;;5104843;28;20028;-73
2022/03/01 14:12:41;;;;;;;7.13;4.57;;;;;;;;;;5103554;28;20055;-74
2022/03/01 14:15:07;;;;;;;13.70;8.48;;;;;;;;;;5104684;28;20039;-73
2022/03/01 14:17:34;;;;;;;10.38;5.90;;;;;;;;;;5104888;28;20061;-73
2022/03/01 14:20:00;;;;;;;6.30;4.57;;;;;;;;;;5103177;28;20020;-74
2022/03/01 14:22:27;;;;;;;10.07;5.78;;;;;;;;;;5104787;28;20043;-73
2022/03/01 14:24:56;;;;;;;11.02;4.85;;;;;;;;;;5104369;28;20040;-74
2022/03/01 14:27:21;;;;;;;5.70;3.60;;;;;;;;;;5103279;28;20032;-74
2022/03/01 14:29:46;;;;;;;10.60;5.32;;;;;;;;;;5103208;28;20073;-74
2022/03/01 14:32:12;;;;;;;11.73;7.18;;;;;;;;;;5103351;28;20107;-74
2022/03/01 14:34:39;;;;;;;15.50;7.50;;;;;;;;;;5104442;28;20035;-74
2022/03/01 14:37:05;;;;;;;8.48;5.22;;;;;;;;;;5104399;28;20082;-74
2022/03/01 14:39:31;;;;;;;13.40;5.55;;;;;;;;;;5102724;28;20436;-73
2022/03/01 14:41:57;;;;;;;7.78;4.55;;;;;;;;;;5104534;28;20048;-74